Domov               UVHVVR             MKGP            O straneh              
ZDRAVSTVENO VARSTVO RASTLIN
  MREŽA AGROMET. POSTAJ
 ► PROGNOSTIČNA OBVESTILA
AGROMETEOROLOŠKI PODATKI -
ARSO
OBVLADOVANJE TVEGANJ ZARADI
NEUGODNIH VREMENSKIH RAZMER
  ► NARAVNE NESREČE
  ► SUŠA/MOČA
  ► NAMAKANJE
  ► ŽLED (gozdarstvo)
KARTOGRAFSKI PRIKAZI
SPLETNE POVEZAVE
PROJEKTI IN PUBLIKACIJE

AGROMETEOROLOŠKA MREŽA: VREMENSKE POSTAJE IN FENOLOŠKA OPAZOVANJA

Pregled podatkov za lokacijo Podbrezje, meteorološka postaja 855704

Pregled senzorjev na lokaciji

ID Ime Zadnja
vrednost
Datum
zadnje
spremembe
Tip
senzorja
4023 Omočenost lista (U) 0 U 19.7.2018 05:30 A730WET
4024 Padavine (mm) 0 mm 19.7.2018 05:30 Rain-O-Matic
4022 Relativna vlaga 2 m (% RH) 70,29 % RH 19.7.2018 05:30 50YA
4021 Temperatura 2 m (°C) 15,06 °C 19.7.2018 05:30 50YA

Pregled podatkov zadnjih 24 ur

Zap.
št.
Datum in čas Podbrezje
Omočenost
lista
Padavine Relativna
vlaga
2
m
Temperatura
2
m
1 19.7.2018 06:00
2 19.7.2018 05:30
3 19.7.2018 05:00
4 19.7.2018 04:30 0 0 70,3 15,1
5 19.7.2018 04:00 0 0 73,7 14,6
6 19.7.2018 03:30 0 0 70,2 15,4
7 19.7.2018 03:00 0 0 66,8 16,1
8 19.7.2018 02:30 0 0 70,1 15,8
9 19.7.2018 02:00 0 0 72 15,8
10 19.7.2018 01:30 0 0 68,9 16,6
11 19.7.2018 01:00 0 0 64,2 17,4
12 19.7.2018 00:30 0 0 65 17,5
13 19.7.2018 00:00 0 0 66,6 17,5
14 18.7.2018 23:30 0 0 66,8 17,7
15 18.7.2018 23:00 0 0 63,8 18,5
16 18.7.2018 22:30 0 0 60,4 19,4
17 18.7.2018 22:00 0 0 57,8 20,2
18 18.7.2018 21:30 0 0 52,7 21,2
19 18.7.2018 21:00 0 0 45,1 22,6
20 18.7.2018 20:30 0 0 48 22,6
21 18.7.2018 20:00 0 0 44 23,7
22 18.7.2018 19:30 0 0 37,1 25,5
23 18.7.2018 19:00 0 0 37,8 26,2
24 18.7.2018 18:30 0 0 33,6 27,4
25 18.7.2018 18:00 0 0 31,6 28,1
26 18.7.2018 17:30 0 0 30,4 28,7
27 18.7.2018 17:00 0 0 28,3 30
28 18.7.2018 16:30 0 0 26,7 30,5
29 18.7.2018 16:00 0 0 27,3 31,3
30 18.7.2018 15:30 0 0 27,3 31,2
31 18.7.2018 15:00 0 0 28,5 31,2
32 18.7.2018 14:30 0 0 29,1 30,9
33 18.7.2018 14:00 0 0 28,8 30,9
34 18.7.2018 13:30 0 0 27,9 31,1
35 18.7.2018 13:00 0 0 28,6 30,6
36 18.7.2018 12:30 0 0 28,9 31,1
37 18.7.2018 12:00 0 0 29,1 31,2
38 18.7.2018 11:30 0 0 29,2 30,6
39 18.7.2018 11:00 0 0 30,1 30,5
40 18.7.2018 10:30 0 0 31,6 30,2
41 18.7.2018 10:00 0 0 33,7 29,4
42 18.7.2018 09:30 0 0 39 28,3
43 18.7.2018 09:00 0 0 44,9 26,9
44 18.7.2018 08:30 0 0 51,1 25,2
45 18.7.2018 08:00 0 0 52,8 24,2
46 18.7.2018 07:30 0 0 57,5 22,3
47 18.7.2018 07:00 0 0 59,7 20,7
48 18.7.2018 06:30 0 0 66,8 17,9
© 2011 Ministrstvo za kmetijstvo, gozdarstvo in prehrano. Vse pravice pridržane.